Time;durP1;ratioP1;P1;durP2;ratioP2;P2;SDS_P1;SDS_P2;PMS_P1;PMS_P2;Temp;Humidity;BMP_temperature;BMP_pressure;BME280_temperature;BME280_humidity;BME280_pressure;Samples;Min_cycle;Max_cycle;Signal;HPM_P1;HPM_P2
2021/07/31 00:01:12;;;;;;;8.00;6.63;;;16.00;99.90;;;;;;4924207;29;20111;-73
2021/07/31 00:03:38;;;;;;;7.68;6.55;;;16.10;99.90;;;;;;4921926;29;20394;-74
2021/07/31 00:06:05;;;;;;;10.43;7.10;;;16.10;99.90;;;;;;4923270;29;20035;-74
2021/07/31 00:08:31;;;;;;;13.98;8.45;;;16.10;99.90;;;;;;4927742;29;20028;-73
2021/07/31 00:10:58;;;;;;;10.63;7.72;;;16.00;99.90;;;;;;4923081;29;20086;-75
2021/07/31 00:13:24;;;;;;;8.38;7.45;;;15.90;99.90;;;;;;4930803;29;20403;-74
2021/07/31 00:15:50;;;;;;;9.38;7.85;;;15.90;99.90;;;;;;4933425;29;20030;-73
2021/07/31 00:18:16;;;;;;;8.43;6.95;;;15.90;99.90;;;;;;4924584;29;20032;-74
2021/07/31 00:20:42;;;;;;;7.50;6.28;;;15.80;99.90;;;;;;4920249;29;20028;-73
2021/07/31 00:23:09;;;;;;;9.40;6.93;;;15.80;99.90;;;;;;4918759;29;20028;-73
2021/07/31 00:25:35;;;;;;;6.88;5.95;;;15.70;99.90;;;;;;4917648;29;20484;-73
2021/07/31 00:28:01;;;;;;;11.05;6.80;;;15.70;99.90;;;;;;4931198;29;20419;-75
2021/07/31 00:30:28;;;;;;;7.75;6.72;;;15.60;99.90;;;;;;4919360;29;20042;-75
2021/07/31 00:32:54;;;;;;;12.02;6.65;;;15.60;99.90;;;;;;4923163;29;20036;-73
2021/07/31 00:35:20;;;;;;;10.32;7.68;;;15.50;99.90;;;;;;4927269;29;20049;-75
2021/07/31 00:37:46;;;;;;;10.98;6.85;;;15.60;99.90;;;;;;4917561;29;20055;-74
2021/07/31 00:40:12;;;;;;;11.57;7.15;;;15.50;99.90;;;;;;4930804;29;20032;-73
2021/07/31 00:42:42;;;;;;;10.20;7.25;;;15.50;99.90;;;;;;4921560;29;20039;-73
2021/07/31 00:45:11;;;;;;;9.95;7.18;;;15.50;99.90;;;;;;4923587;29;20570;-75
2021/07/31 00:47:38;;;;;;;9.97;7.63;;;15.40;99.90;;;;;;4930191;29;20122;-75
2021/07/31 00:50:05;;;;;;;8.43;7.45;;;15.30;99.90;;;;;;4929334;29;20126;-75
2021/07/31 00:52:31;;;;;;;11.38;7.53;;;15.40;99.90;;;;;;4917760;29;20119;-73
2021/07/31 00:54:59;;;;;;;9.15;6.85;;;15.40;99.90;;;;;;4929827;29;20035;-73
2021/07/31 00:57:25;;;;;;;10.45;8.27;;;15.40;99.90;;;;;;4926041;29;20031;-72
2021/07/31 00:59:51;;;;;;;10.60;8.35;;;15.30;99.90;;;;;;4928066;29;20032;-73
2021/07/31 01:02:17;;;;;;;8.88;7.35;;;15.30;99.90;;;;;;4922944;29;20044;-73
2021/07/31 01:04:43;;;;;;;11.88;7.50;;;15.30;99.90;;;;;;4920725;29;20063;-75
2021/07/31 01:07:08;;;;;;;10.82;7.25;;;15.30;99.90;;;;;;4929803;29;20472;-74
2021/07/31 01:09:34;;;;;;;9.60;7.55;;;15.20;99.90;;;;;;4929331;29;20115;-74
2021/07/31 01:12:02;;;;;;;8.80;7.13;;;15.20;99.90;;;;;;4925702;29;20488;-76
2021/07/31 01:14:27;;;;;;;12.48;7.88;;;15.20;99.90;;;;;;4922234;29;20032;-75
2021/07/31 01:16:55;;;;;;;9.50;7.35;;;15.20;99.90;;;;;;4916676;29;20024;-73
2021/07/31 01:19:20;;;;;;;10.60;7.75;;;15.10;99.90;;;;;;4919313;29;20036;-72
2021/07/31 01:21:46;;;;;;;8.77;7.47;;;15.20;99.90;;;;;;4920312;29;20072;-72
2021/07/31 01:24:15;;;;;;;10.63;7.57;;;15.20;99.90;;;;;;4925823;29;20026;-76
2021/07/31 01:26:47;;;;;;;9.65;7.25;;;15.20;99.90;;;;;;4928839;28;20463;-73
2021/07/31 01:29:15;;;;;;;8.60;7.47;;;15.10;99.90;;;;;;4922134;29;20040;-75
2021/07/31 01:31:42;;;;;;;9.05;7.78;;;15.10;99.90;;;;;;4927931;29;20028;-73
2021/07/31 01:34:08;;;;;;;10.18;7.65;;;15.10;99.90;;;;;;4931642;29;20091;-74
2021/07/31 01:36:33;;;;;;;8.80;7.80;;;15.20;99.90;;;;;;4932542;29;20031;-73
2021/07/31 01:39:00;;;;;;;9.30;7.90;;;15.10;99.90;;;;;;4934335;29;20074;-74
2021/07/31 01:41:26;;;;;;;13.88;8.95;;;15.10;99.90;;;;;;4935193;29;20445;-73
2021/07/31 01:43:53;;;;;;;13.73;8.77;;;15.00;99.90;;;;;;4935778;29;20032;-73
2021/07/31 01:46:20;;;;;;;9.63;8.55;;;15.00;99.90;;;;;;4930494;29;20533;-73
2021/07/31 01:48:46;;;;;;;11.57;8.02;;;15.00;99.90;;;;;;4931178;29;20042;-74
2021/07/31 01:51:12;;;;;;;9.98;7.50;;;15.00;99.90;;;;;;4929940;29;20051;-74
2021/07/31 01:53:38;;;;;;;10.77;8.05;;;14.90;99.90;;;;;;4929805;29;20039;-74
2021/07/31 01:56:04;;;;;;;9.65;8.35;;;15.00;99.90;;;;;;4928877;29;20031;-74
2021/07/31 01:58:30;;;;;;;9.48;8.13;;;15.00;99.90;;;;;;4930937;29;20035;-74
2021/07/31 02:00:56;;;;;;;10.82;8.40;;;14.90;99.90;;;;;;4931333;29;20031;-76
2021/07/31 02:03:22;;;;;;;14.23;9.05;;;14.90;99.90;;;;;;4929504;29;20016;-74
2021/07/31 02:05:48;;;;;;;11.93;8.38;;;14.80;99.90;;;;;;4930887;29;20040;-75
2021/07/31 02:08:14;;;;;;;8.95;7.80;;;14.80;99.90;;;;;;4924061;29;20413;-75
2021/07/31 02:10:40;;;;;;;12.43;7.90;;;14.80;99.90;;;;;;4927803;29;20039;-73
2021/07/31 02:13:06;;;;;;;10.02;8.13;;;14.80;99.90;;;;;;4936524;29;20016;-73
2021/07/31 02:15:32;;;;;;;9.70;7.90;;;14.70;99.90;;;;;;4931968;29;20050;-75
2021/07/31 02:17:58;;;;;;;10.77;8.55;;;14.70;99.90;;;;;;4934113;29;20035;-75
2021/07/31 02:20:24;;;;;;;8.43;7.60;;;14.70;99.90;;;;;;4933928;29;20122;-74
2021/07/31 02:22:51;;;;;;;10.57;8.30;;;14.70;99.90;;;;;;4933547;29;20050;-73
2021/07/31 02:25:17;;;;;;;11.27;8.15;;;14.70;99.90;;;;;;4936377;29;20133;-75
2021/07/31 02:27:43;;;;;;;10.48;8.70;;;14.70;99.90;;;;;;4934912;29;20087;-73
2021/07/31 02:30:12;;;;;;;9.05;7.68;;;14.70;99.90;;;;;;4932727;29;20028;-75
2021/07/31 02:32:38;;;;;;;10.37;8.20;;;14.70;99.90;;;;;;4925057;29;20546;-74
2021/07/31 02:35:04;;;;;;;10.82;8.48;;;14.70;99.90;;;;;;4933610;29;20367;-76
2021/07/31 02:37:30;;;;;;;12.82;7.85;;;14.60;99.90;;;;;;4930677;29;20024;-73
2021/07/31 02:39:55;;;;;;;9.90;8.23;;;14.50;99.90;;;;;;4935202;29;20513;-75
2021/07/31 02:42:22;;;;;;;10.95;9.15;;;14.50;99.90;;;;;;4931955;29;20055;-75
2021/07/31 02:44:47;;;;;;;8.93;7.90;;;14.50;99.90;;;;;;4932854;29;20039;-75
2021/07/31 02:47:13;;;;;;;9.55;7.65;;;14.50;99.90;;;;;;4933823;29;20419;-75
2021/07/31 02:49:39;;;;;;;9.38;8.38;;;14.40;99.90;;;;;;4934599;29;20062;-73
2021/07/31 02:52:04;;;;;;;13.95;8.93;;;14.40;99.90;;;;;;4936430;29;20509;-72
2021/07/31 02:54:30;;;;;;;11.27;9.15;;;14.50;99.90;;;;;;4929203;29;20562;-72
2021/07/31 02:56:56;;;;;;;12.65;9.18;;;14.50;99.90;;;;;;4933349;29;20024;-76
2021/07/31 02:59:21;;;;;;;16.02;8.52;;;14.60;99.90;;;;;;4932398;29;20038;-75
2021/07/31 03:01:47;;;;;;;11.60;8.60;;;14.50;99.90;;;;;;4933717;29;20118;-73
2021/07/31 03:04:14;;;;;;;8.27;7.47;;;14.50;99.90;;;;;;4931024;29;20088;-74
2021/07/31 03:06:40;;;;;;;8.50;7.47;;;14.40;99.90;;;;;;4932577;29;20046;-75
2021/07/31 03:09:05;;;;;;;9.82;8.10;;;14.40;99.90;;;;;;4933429;29;20407;-73
2021/07/31 03:11:31;;;;;;;12.48;8.93;;;14.50;99.90;;;;;;4932247;29;20028;-76
2021/07/31 03:13:57;;;;;;;11.63;9.02;;;14.50;99.90;;;;;;4932219;29;20032;-74
2021/07/31 03:16:22;;;;;;;15.13;9.07;;;14.50;99.90;;;;;;4936058;29;20043;-76
2021/07/31 03:18:48;;;;;;;14.35;8.82;;;14.60;99.90;;;;;;4933715;29;20019;-74
2021/07/31 03:21:14;;;;;;;10.10;8.43;;;14.50;99.90;;;;;;4934297;29;20031;-74
2021/07/31 03:23:39;;;;;;;11.90;8.50;;;14.50;99.90;;;;;;4933008;29;20043;-73
2021/07/31 03:26:05;;;;;;;9.32;7.95;;;14.50;99.90;;;;;;4930198;29;20047;-72
2021/07/31 03:28:31;;;;;;;11.73;8.10;;;14.50;99.90;;;;;;4931855;29;20032;-75
2021/07/31 03:30:57;;;;;;;10.80;8.43;;;14.60;99.90;;;;;;4933744;29;20034;-73
2021/07/31 03:33:24;;;;;;;9.55;8.43;;;14.60;99.90;;;;;;4932978;29;20129;-75
2021/07/31 03:35:52;;;;;;;9.90;8.65;;;14.70;99.90;;;;;;4929128;29;20036;-73
2021/07/31 03:38:18;;;;;;;11.82;8.88;;;14.70;99.90;;;;;;4922979;29;20024;-73
2021/07/31 03:40:44;;;;;;;11.10;9.25;;;14.70;99.90;;;;;;4933755;29;20032;-74
2021/07/31 03:43:09;;;;;;;12.75;9.80;;;14.60;99.90;;;;;;4936125;29;20119;-73
2021/07/31 03:45:35;;;;;;;10.55;8.60;;;14.60;99.90;;;;;;4926589;29;20559;-75
2021/07/31 03:48:01;;;;;;;10.68;7.95;;;14.70;99.90;;;;;;4929749;29;20066;-74
2021/07/31 03:50:27;;;;;;;9.50;7.60;;;14.80;99.90;;;;;;4930201;29;20044;-73
2021/07/31 03:52:52;;;;;;;12.80;8.65;;;14.90;99.90;;;;;;4931406;28;20027;-72
2021/07/31 03:55:18;;;;;;;12.88;8.68;;;15.00;99.90;;;;;;4934289;29;20399;-71
2021/07/31 03:57:44;;;;;;;11.57;8.15;;;15.00;99.90;;;;;;4931626;29;20114;-75
2021/07/31 04:00:10;;;;;;;11.43;8.07;;;15.10;99.90;;;;;;4932139;29;20111;-75
2021/07/31 04:02:35;;;;;;;10.90;8.68;;;15.30;99.90;;;;;;4932912;29;20040;-72
2021/07/31 04:05:01;;;;;;;12.00;8.45;;;15.80;99.90;;;;;;4931860;29;20032;-72
2021/07/31 04:07:27;;;;;;;12.63;8.63;;;16.50;99.90;;;;;;4928955;29;20403;-74
2021/07/31 04:09:53;;;;;;;10.38;8.43;;;16.70;99.90;;;;;;4933809;29;20526;-72
2021/07/31 04:12:18;;;;;;;9.27;8.05;;;16.80;99.90;;;;;;4930830;29;20051;-72
2021/07/31 04:14:44;;;;;;;9.00;7.60;;;16.90;99.90;;;;;;4932208;29;20031;-73
2021/07/31 04:17:11;;;;;;;11.55;8.70;;;17.00;99.90;;;;;;4923437;29;20107;-72
2021/07/31 04:19:38;;;;;;;10.60;8.40;;;17.60;99.90;;;;;;4934002;29;20020;-75
2021/07/31 04:22:04;;;;;;;13.52;8.65;;;18.40;99.90;;;;;;4933801;29;20027;-74
2021/07/31 04:24:30;;;;;;;9.75;8.70;;;19.00;99.90;;;;;;4930279;29;20027;-74
2021/07/31 04:26:56;;;;;;;9.88;8.20;;;19.40;99.90;;;;;;4928625;29;20403;-75
2021/07/31 04:29:22;;;;;;;11.20;7.53;;;19.70;99.90;;;;;;4931069;29;20024;-76
2021/07/31 04:31:48;;;;;;;10.95;7.78;;;19.90;99.90;;;;;;4931883;29;20130;-75
2021/07/31 04:34:14;;;;;;;11.52;7.75;;;20.30;99.90;;;;;;4934018;29;20449;-75
2021/07/31 04:36:40;;;;;;;10.80;7.57;;;20.80;99.90;;;;;;4930997;29;20491;-74
2021/07/31 04:39:06;;;;;;;10.20;8.50;;;21.20;99.90;;;;;;4933298;29;20047;-76
2021/07/31 04:41:32;;;;;;;9.93;8.15;;;21.70;99.90;;;;;;4930120;28;20024;-73
2021/07/31 04:43:58;;;;;;;11.23;7.68;;;21.60;99.90;;;;;;4933120;29;20463;-73
2021/07/31 04:46:24;;;;;;;10.80;7.78;;;21.20;99.90;;;;;;4933980;29;20028;-75
2021/07/31 04:48:50;;;;;;;10.82;8.50;;;20.70;99.90;;;;;;4931765;29;20091;-74
2021/07/31 04:51:15;;;;;;;11.85;8.65;;;20.40;99.90;;;;;;4930353;29;20051;-74
2021/07/31 04:53:41;;;;;;;9.75;7.30;;;20.10;99.90;;;;;;4931526;29;20031;-76
2021/07/31 04:56:07;;;;;;;12.27;8.57;;;19.90;99.90;;;;;;4930114;29;20048;-74
2021/07/31 04:58:33;;;;;;;11.27;7.97;;;19.70;99.90;;;;;;4933313;29;20070;-74
2021/07/31 05:00:59;;;;;;;10.90;8.13;;;19.50;99.90;;;;;;4932089;29;20038;-74
2021/07/31 05:03:26;;;;;;;11.00;7.75;;;19.50;99.90;;;;;;4928760;29;20040;-75
2021/07/31 05:05:52;;;;;;;10.48;8.13;;;19.40;99.90;;;;;;4931159;29;20062;-76
2021/07/31 05:08:18;;;;;;;11.57;8.25;;;19.20;99.90;;;;;;4933724;29;20384;-73
2021/07/31 05:10:45;;;;;;;10.95;7.97;;;19.10;99.90;;;;;;4936201;29;20028;-74
2021/07/31 05:13:11;;;;;;;9.82;8.02;;;19.00;99.90;;;;;;4937195;29;20039;-73
2021/07/31 05:15:41;;;;;;;11.88;8.05;;;18.80;99.90;;;;;;4935516;29;20027;-73
2021/07/31 05:18:07;;;;;;;14.77;8.00;;;18.80;99.90;;;;;;4934294;28;20024;-73
2021/07/31 05:20:37;;;;;;;10.65;8.10;;;18.70;99.90;;;;;;4935255;29;20035;-75
2021/07/31 05:23:03;;;;;;;9.43;7.95;;;18.80;99.90;;;;;;4935640;29;20080;-75
2021/07/31 05:25:28;;;;;;;13.00;7.93;;;18.80;99.90;;;;;;4937504;29;20076;-74
2021/07/31 05:27:54;;;;;;;14.13;9.07;;;19.00;99.90;;;;;;4942361;29;20024;-76
2021/07/31 05:30:21;;;;;;;8.43;7.28;;;19.10;99.90;;;;;;4933491;29;20479;-76
2021/07/31 05:32:46;;;;;;;12.68;7.40;;;19.30;99.90;;;;;;4934388;29;20376;-75
2021/07/31 05:35:12;;;;;;;12.45;7.53;;;19.50;99.90;;;;;;4933304;29;20028;-73
2021/07/31 05:37:38;;;;;;;7.30;6.50;;;19.70;99.90;;;;;;4936457;29;20557;-76
2021/07/31 05:40:04;;;;;;;9.15;7.35;;;19.90;99.90;;;;;;4936331;29;20030;-75
2021/07/31 05:42:30;;;;;;;9.75;6.75;;;20.20;99.90;;;;;;4934871;29;20346;-74
2021/07/31 05:45:00;;;;;;;10.23;7.22;;;20.30;99.90;;;;;;4934657;29;20127;-75
2021/07/31 05:47:28;;;;;;;9.27;7.43;;;20.40;99.90;;;;;;4928054;29;20020;-74
2021/07/31 05:49:55;;;;;;;9.35;7.03;;;20.60;99.90;;;;;;4933864;29;20135;-74
2021/07/31 05:52:24;;;;;;;11.48;6.40;;;20.70;99.90;;;;;;4929809;29;20034;-73
2021/07/31 05:54:51;;;;;;;11.03;6.87;;;20.80;99.90;;;;;;4938003;29;20038;-75
2021/07/31 05:57:17;;;;;;;14.18;7.00;;;20.90;99.90;;;;;;4936743;29;20323;-73
2021/07/31 05:59:43;;;;;;;9.68;6.47;;;21.00;99.90;;;;;;4936946;29;20035;-75
2021/07/31 06:02:10;;;;;;;10.65;6.45;;;21.10;99.90;;;;;;4934331;29;20021;-75
2021/07/31 06:04:36;;;;;;;12.82;5.93;;;21.20;99.90;;;;;;4937956;29;20031;-76
2021/07/31 06:07:04;;;;;;;17.20;6.78;;;21.30;99.90;;;;;;4938214;29;20510;-74
2021/07/31 06:09:29;;;;;;;7.60;5.72;;;21.50;99.90;;;;;;4934213;28;20027;-75
2021/07/31 06:11:55;;;;;;;9.55;6.05;;;21.60;99.90;;;;;;4928858;29;20039;-73
2021/07/31 06:14:20;;;;;;;9.00;5.43;;;21.70;99.90;;;;;;4937647;29;20089;-75
2021/07/31 06:16:46;;;;;;;8.38;5.63;;;21.90;99.90;;;;;;4937829;29;20043;-75
2021/07/31 06:19:12;;;;;;;7.25;5.15;;;22.00;99.90;;;;;;4936082;29;20510;-73
2021/07/31 06:21:37;;;;;;;7.55;4.15;;;22.30;99.90;;;;;;4940400;29;20043;-74
2021/07/31 06:24:04;;;;;;;9.93;5.05;;;22.50;99.90;;;;;;4933983;29;20031;-76
2021/07/31 06:26:29;;;;;;;10.10;4.00;;;22.50;99.90;;;;;;4936125;29;20039;-74
2021/07/31 06:28:55;;;;;;;9.00;4.38;;;22.60;99.90;;;;;;4939229;29;20031;-74
2021/07/31 06:31:21;;;;;;;6.53;3.72;;;22.60;99.90;;;;;;4938880;29;20072;-77
2021/07/31 06:33:46;;;;;;;6.70;4.40;;;22.60;99.90;;;;;;4934653;29;20039;-75
2021/07/31 06:36:16;;;;;;;7.90;3.58;;;22.70;99.90;;;;;;4936153;29;20026;-75
2021/07/31 06:38:42;;;;;;;14.70;4.07;;;22.60;99.90;;;;;;4936172;29;20387;-75
2021/07/31 06:41:07;;;;;;;8.65;4.63;;;22.70;99.90;;;;;;4930782;29;20137;-77
2021/07/31 06:43:33;;;;;;;8.70;5.10;;;22.80;99.90;;;;;;4938896;29;20034;-76
2021/07/31 06:46:11;;;;;;;6.78;3.78;;;22.90;99.90;;;;;;4938796;29;20138;-76
2021/07/31 06:48:37;;;;;;;8.35;4.30;;;23.10;99.90;;;;;;4933223;29;20652;-75
2021/07/31 06:51:03;;;;;;;7.22;3.78;;;23.20;99.90;;;;;;4932519;29;20400;-75
2021/07/31 06:53:28;;;;;;;6.47;3.67;;;23.20;99.90;;;;;;4933631;29;20028;-75
2021/07/31 06:55:58;;;;;;;4.53;3.63;;;23.30;99.90;;;;;;4924967;29;20039;-77
2021/07/31 06:58:24;;;;;;;5.00;3.75;;;23.40;99.90;;;;;;4935675;29;20108;-75
2021/07/31 07:00:49;;;;;;;8.00;3.42;;;23.40;99.90;;;;;;4934148;29;20059;-77
2021/07/31 07:03:15;;;;;;;8.82;3.95;;;23.50;99.90;;;;;;4929907;29;20082;-77
2021/07/31 07:05:41;;;;;;;5.18;4.03;;;23.60;99.90;;;;;;4929861;29;20035;-77
2021/07/31 07:08:06;;;;;;;5.43;3.15;;;23.70;99.90;;;;;;4931989;29;20503;-77
2021/07/31 07:10:33;;;;;;;8.07;3.53;;;23.80;99.90;;;;;;4932665;29;20039;-76
2021/07/31 07:12:59;;;;;;;5.63;3.33;;;23.90;99.90;;;;;;4933049;29;20032;-77
2021/07/31 07:15:27;;;;;;;7.65;3.35;;;24.00;99.90;;;;;;4932770;29;20042;-76
2021/07/31 07:17:54;;;;;;;8.82;3.22;;;24.20;99.90;;;;;;4931209;29;20023;-74
2021/07/31 07:20:19;;;;;;;4.70;3.20;;;24.20;99.90;;;;;;4930042;29;20027;-74
2021/07/31 07:22:45;;;;;;;6.22;3.08;;;24.40;99.90;;;;;;4928196;29;20047;-77
2021/07/31 07:25:11;;;;;;;7.32;3.15;;;24.50;99.50;;;;;;4934162;29;20036;-76
2021/07/31 07:27:37;;;;;;;4.88;2.72;;;24.50;99.30;;;;;;4933438;29;20039;-76
2021/07/31 07:30:03;;;;;;;7.80;3.72;;;24.50;99.20;;;;;;4930849;29;20395;-73
2021/07/31 07:32:28;;;;;;;10.35;2.50;;;24.40;98.50;;;;;;4931178;29;20038;-73
2021/07/31 07:34:54;;;;;;;4.63;2.88;;;24.50;98.70;;;;;;4931254;29;20031;-75
2021/07/31 07:37:20;;;;;;;8.80;3.13;;;24.50;98.80;;;;;;4936133;29;20032;-75
2021/07/31 07:39:45;;;;;;;4.68;2.67;;;24.60;98.50;;;;;;4930462;29;20566;-74
2021/07/31 07:42:11;;;;;;;4.45;2.22;;;24.70;99.00;;;;;;4932578;29;20048;-75
2021/07/31 07:44:37;;;;;;;8.13;2.83;;;24.80;98.50;;;;;;4933360;29;20087;-73
2021/07/31 07:47:03;;;;;;;6.95;2.70;;;24.90;97.70;;;;;;4934307;29;20027;-74
2021/07/31 07:49:28;;;;;;;5.28;2.95;;;25.10;96.20;;;;;;4933442;29;20070;-75
2021/07/31 07:51:54;;;;;;;3.00;2.55;;;25.20;96.60;;;;;;4931089;29;20662;-75
2021/07/31 07:54:21;;;;;;;6.90;2.80;;;25.30;96.00;;;;;;4931129;29;20028;-76
2021/07/31 07:56:46;;;;;;;4.65;2.70;;;25.40;96.30;;;;;;4933094;29;20566;-76
2021/07/31 07:59:12;;;;;;;8.15;2.28;;;25.50;95.90;;;;;;4925241;29;20427;-75
2021/07/31 08:01:38;;;;;;;6.85;3.00;;;25.60;94.90;;;;;;4933127;29;20045;-76
2021/07/31 08:04:04;;;;;;;5.65;2.78;;;25.60;95.80;;;;;;4933034;29;20487;-75
2021/07/31 08:06:30;;;;;;;9.15;2.88;;;25.70;95.50;;;;;;4929350;29;20618;-76
2021/07/31 08:08:55;;;;;;;4.50;2.40;;;25.70;94.90;;;;;;4931334;29;20368;-76
2021/07/31 08:11:21;;;;;;;4.75;2.75;;;25.90;95.00;;;;;;4931421;29;20024;-74
2021/07/31 08:13:47;;;;;;;6.78;2.63;;;26.00;95.20;;;;;;4932454;29;20396;-74
2021/07/31 08:16:12;;;;;;;4.57;2.28;;;26.10;93.80;;;;;;4934800;29;20055;-74
2021/07/31 08:18:38;;;;;;;7.50;2.83;;;26.30;94.20;;;;;;4931437;29;20043;-75
2021/07/31 08:21:04;;;;;;;3.53;2.03;;;26.50;94.10;;;;;;4926062;29;20054;-75
2021/07/31 08:23:29;;;;;;;4.25;2.38;;;26.70;93.20;;;;;;4930873;29;20040;-76
2021/07/31 08:25:55;;;;;;;7.45;3.10;;;26.80;93.30;;;;;;4932000;29;20186;-74
2021/07/31 08:28:21;;;;;;;4.72;2.47;;;26.90;92.30;;;;;;4933003;29;20031;-76
2021/07/31 08:30:47;;;;;;;8.60;2.78;;;27.00;92.20;;;;;;4928938;29;20024;-76
2021/07/31 08:33:12;;;;;;;3.90;2.92;;;27.10;93.20;;;;;;4930322;29;20020;-74
2021/07/31 08:35:38;;;;;;;6.45;2.72;;;27.10;92.80;;;;;;4930726;29;20032;-74
2021/07/31 08:38:04;;;;;;;4.25;2.63;;;27.30;92.80;;;;;;4931829;29;20071;-76
2021/07/31 08:40:29;;;;;;;4.35;2.25;;;27.30;92.30;;;;;;4931995;29;20122;-76
2021/07/31 08:42:55;;;;;;;7.85;2.55;;;27.40;92.10;;;;;;4930208;29;20027;-74
2021/07/31 08:45:21;;;;;;;12.95;2.80;;;27.40;91.40;;;;;;4931430;29;20111;-74
2021/07/31 08:47:50;;;;;;;5.18;2.78;;;27.40;91.40;;;;;;4929883;29;20024;-74
2021/07/31 08:50:16;;;;;;;6.57;2.60;;;27.40;91.80;;;;;;4930764;29;20054;-76
2021/07/31 08:52:46;;;;;;;5.20;2.88;;;27.40;91.30;;;;;;4930429;29;21071;-76
2021/07/31 08:55:12;;;;;;;4.95;2.75;;;27.30;90.30;;;;;;4932927;29;20052;-76
2021/07/31 08:57:38;;;;;;;7.97;3.03;;;27.20;90.10;;;;;;4929678;29;20075;-76
2021/07/31 09:00:05;;;;;;;3.47;3.08;;;27.20;90.40;;;;;;4925909;29;20036;-75
2021/07/31 09:02:46;;;;;;;8.23;3.20;;;27.20;90.30;;;;;;4927568;29;20058;-76
2021/07/31 09:05:28;;;;;;;8.65;3.50;;;27.30;90.80;;;;;;4931260;29;20039;-76
2021/07/31 09:08:05;;;;;;;5.38;3.10;;;27.40;90.70;;;;;;4928662;29;20043;-73
2021/07/31 09:10:32;;;;;;;9.05;3.63;;;27.40;91.00;;;;;;4930893;29;20036;-76
2021/07/31 09:13:14;;;;;;;5.85;3.15;;;27.40;90.90;;;;;;4930348;29;20035;-73
2021/07/31 09:15:42;;;;;;;3.58;2.83;;;27.40;90.90;;;;;;4930071;29;20094;-75
2021/07/31 09:18:34;;;;;;;3.47;2.70;;;27.50;91.40;;;;;;4930753;29;20043;-75
2021/07/31 09:21:06;;;;;;;6.20;3.33;;;27.60;92.30;;;;;;4929107;29;20194;-75
2021/07/31 09:23:48;;;;;;;33.25;4.20;;;27.70;93.40;;;;;;4929786;29;20042;-75
2021/07/31 09:26:22;;;;;;;7.60;2.78;;;27.70;92.20;;;;;;4924868;29;20044;-74
2021/07/31 09:29:03;;;;;;;9.68;3.92;;;27.80;92.10;;;;;;4926139;29;20075;-75
2021/07/31 09:31:30;;;;;;;6.85;3.28;;;27.80;91.40;;;;;;4926057;29;20051;-74
2021/07/31 09:33:59;;;;;;;6.25;2.65;;;27.70;91.80;;;;;;4931393;29;20042;-74
2021/07/31 09:36:37;;;;;;;11.02;3.28;;;27.80;91.50;;;;;;4930784;29;20058;-75
2021/07/31 09:39:05;;;;;;;5.30;3.03;;;27.70;90.90;;;;;;4931813;29;20060;-73
2021/07/31 09:41:33;;;;;;;6.57;3.15;;;27.70;91.30;;;;;;4931004;29;20031;-75
2021/07/31 09:44:04;;;;;;;11.85;5.63;;;27.70;91.50;;;;;;4923432;29;20028;-74
2021/07/31 09:46:40;;;;;;;57.72;40.95;;;27.60;91.20;;;;;;4930114;29;20054;-74
2021/07/31 09:49:08;;;;;;;6.75;3.55;;;27.70;90.90;;;;;;4930897;29;20064;-73
2021/07/31 09:51:36;;;;;;;5.18;2.95;;;27.60;90.90;;;;;;4928710;29;20043;-75
2021/07/31 09:54:06;;;;;;;3.67;3.10;;;27.50;90.30;;;;;;4928371;29;20031;-76
2021/07/31 09:56:40;;;;;;;6.95;3.35;;;27.70;90.20;;;;;;4934016;29;20442;-75
2021/07/31 09:59:07;;;;;;;6.10;3.58;;;27.80;91.40;;;;;;4932547;29;20063;-75
2021/07/31 10:01:36;;;;;;;9.57;3.60;;;28.00;91.30;;;;;;4923304;29;20028;-75
2021/07/31 10:04:03;;;;;;;4.00;3.35;;;28.10;90.50;;;;;;4930774;29;20447;-75
2021/07/31 10:06:33;;;;;;;8.45;3.17;;;28.10;89.30;;;;;;4929675;29;20110;-75
2021/07/31 10:09:04;;;;;;;5.10;3.28;;;28.30;90.50;;;;;;4933440;29;20516;-76
2021/07/31 10:11:32;;;;;;;7.05;3.38;;;28.30;89.70;;;;;;4920881;29;20035;-76
2021/07/31 10:14:00;;;;;;;4.35;3.25;;;28.40;90.60;;;;;;4935199;29;20046;-76
2021/07/31 10:16:26;;;;;;;8.75;3.80;;;28.60;90.90;;;;;;4936026;29;20510;-76
2021/07/31 10:18:58;;;;;;;7.80;3.72;;;28.70;90.30;;;;;;4933463;29;20031;-76
2021/07/31 10:21:26;;;;;;;7.90;3.45;;;28.70;90.30;;;;;;4931063;28;20035;-76
2021/07/31 10:23:58;;;;;;;7.82;4.00;;;28.60;89.40;;;;;;4929919;29;20032;-76
2021/07/31 10:26:25;;;;;;;5.82;3.00;;;28.70;89.30;;;;;;4932775;29;20498;-76
2021/07/31 10:28:50;;;;;;;7.40;3.72;;;28.80;89.60;;;;;;4941713;29;20035;-76
2021/07/31 10:31:30;;;;;;;3.95;3.40;;;28.70;88.70;;;;;;4932820;29;20016;-76
2021/07/31 10:33:55;;;;;;;9.05;3.50;;;28.80;90.00;;;;;;4935922;29;20043;-76
2021/07/31 10:36:31;;;;;;;9.68;3.42;;;29.00;87.40;;;;;;4933691;29;20417;-76
2021/07/31 10:38:59;;;;;;;5.38;3.58;;;29.10;88.50;;;;;;4933276;28;20036;-76
2021/07/31 10:41:54;;;;;;;6.55;3.22;;;29.10;87.40;;;;;;4934619;29;20457;-76
2021/07/31 10:44:20;;;;;;;7.30;3.10;;;29.10;85.20;;;;;;4930447;29;20142;-76
2021/07/31 10:46:46;;;;;;;8.82;3.10;;;29.30;83.10;;;;;;4918752;29;20043;-76
2021/07/31 10:49:37;;;;;;;4.47;3.15;;;29.50;86.10;;;;;;4928677;29;20184;-76
2021/07/31 10:52:03;;;;;;;6.35;3.78;;;29.60;83.30;;;;;;4933002;29;20032;-76
2021/07/31 10:54:58;;;;;;;5.47;3.22;;;29.70;83.90;;;;;;4929975;29;20032;-76
2021/07/31 10:57:53;;;;;;;17.42;3.63;;;29.80;85.60;;;;;;4927762;29;20499;-76
2021/07/31 11:00:34;;;;;;;8.88;3.63;;;29.80;81.20;;;;;;4931892;28;20439;-76
2021/07/31 11:03:21;;;;;;;6.97;3.10;;;29.70;78.30;;;;;;4933285;29;20032;-76
2021/07/31 11:05:49;;;;;;;6.07;3.72;;;29.70;77.30;;;;;;4928114;28;21337;-75
2021/07/31 11:08:20;;;;;;;6.57;3.70;;;29.60;78.30;;;;;;4932701;29;20034;-76
2021/07/31 11:10:47;;;;;;;6.68;3.03;;;29.60;79.30;;;;;;4934536;29;20481;-76
2021/07/31 11:13:13;;;;;;;5.38;3.13;;;29.60;80.50;;;;;;4936078;29;20016;-76
2021/07/31 11:16:00;;;;;;;10.90;4.03;;;29.60;81.50;;;;;;4933278;29;20034;-76
2021/07/31 11:18:44;;;;;;;7.85;3.88;;;29.50;81.30;;;;;;4933114;29;20027;-77
2021/07/31 11:21:32;;;;;;;4.65;3.65;;;29.50;79.90;;;;;;4933063;28;20028;-77
2021/07/31 11:24:09;;;;;;;6.25;3.20;;;29.50;79.90;;;;;;4933415;29;20032;-76
2021/07/31 11:26:42;;;;;;;4.03;3.13;;;29.40;79.40;;;;;;4932776;29;20289;-77
2021/07/31 11:29:25;;;;;;;6.63;3.70;;;29.50;81.90;;;;;;4932828;29;20031;-77
2021/07/31 11:32:14;;;;;;;5.70;3.53;;;29.40;80.60;;;;;;4918469;29;20027;-77
2021/07/31 11:34:42;;;;;;;6.97;3.45;;;29.50;81.10;;;;;;4933804;29;20030;-77
2021/07/31 11:37:08;;;;;;;4.95;3.60;;;29.40;81.60;;;;;;4934871;29;20063;-77
2021/07/31 11:39:35;;;;;;;7.53;4.13;;;29.40;80.80;;;;;;4933022;29;20403;-77
2021/07/31 11:42:02;;;;;;;7.05;4.10;;;29.50;82.00;;;;;;4932976;29;20522;-77
2021/07/31 11:44:30;;;;;;;5.78;4.45;;;29.60;82.50;;;;;;4932768;29;20156;-77
2021/07/31 11:46:56;;;;;;;7.60;4.75;;;29.50;83.40;;;;;;4932472;29;20039;-77
2021/07/31 11:49:25;;;;;;;8.90;5.00;;;29.50;83.30;;;;;;4935975;29;20039;-77
2021/07/31 11:51:55;;;;;;;8.77;4.78;;;29.50;82.50;;;;;;4933943;29;20051;-77
2021/07/31 11:54:21;;;;;;;8.75;4.70;;;29.40;84.20;;;;;;4928872;29;20388;-77
2021/07/31 11:56:48;;;;;;;10.32;6.03;;;29.20;84.80;;;;;;4932683;29;20028;-77
2021/07/31 11:59:28;;;;;;;6.78;4.72;;;29.20;84.50;;;;;;4932804;29;20035;-75
2021/07/31 12:01:55;;;;;;;9.02;4.80;;;29.10;84.60;;;;;;4917854;29;20072;-76
2021/07/31 12:05:00;;;;;;;6.32;4.75;;;29.00;84.70;;;;;;4929729;29;20090;-76
2021/07/31 12:07:25;;;;;;;8.82;4.72;;;28.80;85.10;;;;;;4867624;29;20044;-76
2021/07/31 12:10:09;;;;;;;5.18;4.45;;;28.70;84.40;;;;;;4868446;29;20104;-76
2021/07/31 12:12:36;;;;;;;4.78;4.30;;;28.80;85.10;;;;;;4871467;29;20100;-77
2021/07/31 12:15:22;;;;;;;5.13;4.22;;;28.80;85.00;;;;;;4874743;29;20025;-76
2021/07/31 12:17:56;;;;;;;7.40;4.75;;;28.80;85.20;;;;;;4873787;29;20501;-77
2021/07/31 12:20:37;;;;;;;6.30;4.53;;;28.80;85.50;;;;;;4866246;29;20049;-77
2021/07/31 12:23:06;;;;;;;6.35;4.40;;;28.90;86.00;;;;;;4863105;29;20033;-77
2021/07/31 12:25:32;;;;;;;12.32;4.55;;;28.80;85.70;;;;;;4875063;29;20128;-78
2021/07/31 12:28:09;;;;;;;8.50;4.35;;;28.70;86.10;;;;;;4876440;29;20036;-77
2021/07/31 12:30:35;;;;;;;7.10;4.90;;;28.70;85.80;;;;;;4874710;29;20553;-76
2021/07/31 12:33:06;;;;;;;5.97;4.15;;;28.70;86.30;;;;;;4873358;29;20025;-77
2021/07/31 12:35:36;;;;;;;9.32;4.88;;;28.70;86.60;;;;;;4874960;29;20505;-76
2021/07/31 12:38:02;;;;;;;;;;;28.80;87.20;;;;;;4898045;29;20089;-77
2021/07/31 12:40:28;;;;;;;7.65;5.03;;;28.80;87.50;;;;;;4930330;29;20806;-77
2021/07/31 12:42:53;;;;;;;6.18;4.55;;;28.80;88.00;;;;;;4926230;29;20023;-77
2021/07/31 12:45:20;;;;;;;16.73;5.28;;;28.70;87.30;;;;;;4929883;29;20062;-77
2021/07/31 12:47:45;;;;;;;8.13;4.97;;;28.70;86.80;;;;;;4920214;29;20028;-77